sensor_id;sensor_type;location;lat;lon;timestamp;P1;durP1;ratioP1;P2;durP2;ratioP2
16093;SDS011;8151;47.824;12.092;2023-12-28T00:00:43;2.93;;;1.80;;
16093;SDS011;8151;47.824;12.092;2023-12-28T00:03:11;3.00;;;1.90;;
16093;SDS011;8151;47.824;12.092;2023-12-28T00:05:41;3.33;;;1.87;;
16093;SDS011;8151;47.824;12.092;2023-12-28T00:08:09;2.33;;;1.90;;
16093;SDS011;8151;47.824;12.092;2023-12-28T00:10:38;3.60;;;2.20;;
16093;SDS011;8151;47.824;12.092;2023-12-28T00:13:06;2.17;;;1.70;;
16093;SDS011;8151;47.824;12.092;2023-12-28T00:15:35;4.37;;;1.90;;
16093;SDS011;8151;47.824;12.092;2023-12-28T00:18:03;3.87;;;1.67;;
16093;SDS011;8151;47.824;12.092;2023-12-28T00:20:32;3.50;;;2.10;;
16093;SDS011;8151;47.824;12.092;2023-12-28T00:23:02;3.40;;;2.00;;
16093;SDS011;8151;47.824;12.092;2023-12-28T00:25:32;2.73;;;2.17;;
16093;SDS011;8151;47.824;12.092;2023-12-28T00:28:00;3.33;;;1.90;;
16093;SDS011;8151;47.824;12.092;2023-12-28T00:30:29;3.23;;;1.97;;
16093;SDS011;8151;47.824;12.092;2023-12-28T00:32:59;2.93;;;2.03;;
16093;SDS011;8151;47.824;12.092;2023-12-28T00:35:28;2.67;;;2.00;;
16093;SDS011;8151;47.824;12.092;2023-12-28T00:37:57;2.23;;;1.93;;
16093;SDS011;8151;47.824;12.092;2023-12-28T00:40:27;2.43;;;1.87;;
16093;SDS011;8151;47.824;12.092;2023-12-28T00:42:55;2.07;;;1.77;;
16093;SDS011;8151;47.824;12.092;2023-12-28T00:45:24;1.70;;;1.60;;
16093;SDS011;8151;47.824;12.092;2023-12-28T00:47:52;3.20;;;1.77;;
16093;SDS011;8151;47.824;12.092;2023-12-28T00:50:24;2.83;;;1.90;;
16093;SDS011;8151;47.824;12.092;2023-12-28T00:52:54;1.87;;;1.63;;
16093;SDS011;8151;47.824;12.092;2023-12-28T00:55:22;2.43;;;1.77;;
16093;SDS011;8151;47.824;12.092;2023-12-28T00:57:52;1.97;;;1.37;;
16093;SDS011;8151;47.824;12.092;2023-12-28T01:00:24;2.20;;;1.60;;
16093;SDS011;8151;47.824;12.092;2023-12-28T01:02:52;2.00;;;1.80;;
16093;SDS011;8151;47.824;12.092;2023-12-28T01:05:21;2.87;;;1.90;;
16093;SDS011;8151;47.824;12.092;2023-12-28T01:07:53;2.80;;;2.10;;
16093;SDS011;8151;47.824;12.092;2023-12-28T01:10:21;3.37;;;1.80;;
16093;SDS011;8151;47.824;12.092;2023-12-28T01:12:50;2.47;;;1.80;;
16093;SDS011;8151;47.824;12.092;2023-12-28T01:15:20;1.97;;;1.77;;
16093;SDS011;8151;47.824;12.092;2023-12-28T01:17:48;3.23;;;1.80;;
16093;SDS011;8151;47.824;12.092;2023-12-28T01:20:17;2.93;;;1.67;;
16093;SDS011;8151;47.824;12.092;2023-12-28T01:22:45;1.90;;;1.60;;
16093;SDS011;8151;47.824;12.092;2023-12-28T01:25:16;2.70;;;2.00;;
16093;SDS011;8151;47.824;12.092;2023-12-28T01:27:45;2.10;;;1.53;;
16093;SDS011;8151;47.824;12.092;2023-12-28T01:30:13;2.13;;;1.80;;
16093;SDS011;8151;47.824;12.092;2023-12-28T01:32:43;1.57;;;1.43;;
16093;SDS011;8151;47.824;12.092;2023-12-28T01:35:12;2.10;;;1.57;;
16093;SDS011;8151;47.824;12.092;2023-12-28T01:37:40;2.40;;;1.83;;
16093;SDS011;8151;47.824;12.092;2023-12-28T01:40:09;2.00;;;1.77;;
16093;SDS011;8151;47.824;12.092;2023-12-28T01:42:38;1.57;;;1.47;;
16093;SDS011;8151;47.824;12.092;2023-12-28T01:45:07;2.20;;;1.60;;
16093;SDS011;8151;47.824;12.092;2023-12-28T01:47:36;1.80;;;1.70;;
16093;SDS011;8151;47.824;12.092;2023-12-28T01:50:07;2.47;;;1.67;;
16093;SDS011;8151;47.824;12.092;2023-12-28T01:52:36;1.80;;;1.50;;
16093;SDS011;8151;47.824;12.092;2023-12-28T01:55:05;2.33;;;1.70;;
16093;SDS011;8151;47.824;12.092;2023-12-28T01:57:36;4.50;;;1.97;;
16093;SDS011;8151;47.824;12.092;2023-12-28T02:00:06;2.53;;;1.80;;
16093;SDS011;8151;47.824;12.092;2023-12-28T02:02:35;3.83;;;2.20;;
16093;SDS011;8151;47.824;12.092;2023-12-28T02:05:04;3.10;;;1.70;;
16093;SDS011;8151;47.824;12.092;2023-12-28T02:07:35;2.00;;;1.70;;
16093;SDS011;8151;47.824;12.092;2023-12-28T02:10:05;2.70;;;1.77;;
16093;SDS011;8151;47.824;12.092;2023-12-28T02:12:34;2.63;;;1.87;;
16093;SDS011;8151;47.824;12.092;2023-12-28T02:15:03;2.57;;;1.80;;
16093;SDS011;8151;47.824;12.092;2023-12-28T02:17:33;1.83;;;1.60;;
16093;SDS011;8151;47.824;12.092;2023-12-28T02:20:07;2.47;;;1.80;;
16093;SDS011;8151;47.824;12.092;2023-12-28T02:22:38;2.50;;;1.77;;
16093;SDS011;8151;47.824;12.092;2023-12-28T02:25:10;1.83;;;1.67;;
16093;SDS011;8151;47.824;12.092;2023-12-28T02:27:40;1.63;;;1.53;;
16093;SDS011;8151;47.824;12.092;2023-12-28T02:30:10;2.50;;;1.70;;
16093;SDS011;8151;47.824;12.092;2023-12-28T02:32:41;2.43;;;1.57;;
16093;SDS011;8151;47.824;12.092;2023-12-28T02:35:17;2.67;;;1.60;;
16093;SDS011;8151;47.824;12.092;2023-12-28T02:37:48;1.77;;;1.40;;
16093;SDS011;8151;47.824;12.092;2023-12-28T02:40:21;2.47;;;1.57;;
16093;SDS011;8151;47.824;12.092;2023-12-28T02:42:51;2.13;;;1.60;;
16093;SDS011;8151;47.824;12.092;2023-12-28T02:45:20;2.93;;;1.70;;
16093;SDS011;8151;47.824;12.092;2023-12-28T02:47:48;1.50;;;1.30;;
16093;SDS011;8151;47.824;12.092;2023-12-28T02:50:17;1.87;;;1.60;;
16093;SDS011;8151;47.824;12.092;2023-12-28T02:52:46;1.67;;;1.43;;
16093;SDS011;8151;47.824;12.092;2023-12-28T02:55:14;1.30;;;1.20;;
16093;SDS011;8151;47.824;12.092;2023-12-28T02:57:44;2.33;;;1.60;;
16093;SDS011;8151;47.824;12.092;2023-12-28T03:00:13;1.50;;;1.40;;
16093;SDS011;8151;47.824;12.092;2023-12-28T03:02:42;2.23;;;1.60;;
16093;SDS011;8151;47.824;12.092;2023-12-28T03:05:11;1.50;;;1.40;;
16093;SDS011;8151;47.824;12.092;2023-12-28T03:07:39;2.57;;;1.40;;
16093;SDS011;8151;47.824;12.092;2023-12-28T03:10:09;2.60;;;1.47;;
16093;SDS011;8151;47.824;12.092;2023-12-28T03:12:41;2.80;;;1.60;;
16093;SDS011;8151;47.824;12.092;2023-12-28T03:15:11;2.27;;;1.57;;
16093;SDS011;8151;47.824;12.092;2023-12-28T03:17:41;2.47;;;1.77;;
16093;SDS011;8151;47.824;12.092;2023-12-28T03:20:09;2.07;;;1.63;;
16093;SDS011;8151;47.824;12.092;2023-12-28T03:22:38;1.93;;;1.57;;
16093;SDS011;8151;47.824;12.092;2023-12-28T03:25:08;1.60;;;1.27;;
16093;SDS011;8151;47.824;12.092;2023-12-28T03:27:36;3.67;;;1.57;;
16093;SDS011;8151;47.824;12.092;2023-12-28T03:30:05;2.23;;;1.70;;
16093;SDS011;8151;47.824;12.092;2023-12-28T03:32:36;1.90;;;1.57;;
16093;SDS011;8151;47.824;12.092;2023-12-28T03:35:05;2.60;;;1.90;;
16093;SDS011;8151;47.824;12.092;2023-12-28T03:37:34;3.13;;;1.50;;
16093;SDS011;8151;47.824;12.092;2023-12-28T03:40:03;2.60;;;1.50;;
16093;SDS011;8151;47.824;12.092;2023-12-28T03:42:32;1.33;;;1.23;;
16093;SDS011;8151;47.824;12.092;2023-12-28T03:45:03;3.07;;;1.80;;
16093;SDS011;8151;47.824;12.092;2023-12-28T03:47:32;4.00;;;1.43;;
16093;SDS011;8151;47.824;12.092;2023-12-28T03:50:02;1.93;;;1.43;;
16093;SDS011;8151;47.824;12.092;2023-12-28T03:52:31;2.00;;;1.50;;
16093;SDS011;8151;47.824;12.092;2023-12-28T03:55:00;1.90;;;1.40;;
16093;SDS011;8151;47.824;12.092;2023-12-28T03:57:28;1.60;;;1.30;;
16093;SDS011;8151;47.824;12.092;2023-12-28T03:59:57;2.67;;;1.60;;
16093;SDS011;8151;47.824;12.092;2023-12-28T04:02:25;1.73;;;1.40;;
16093;SDS011;8151;47.824;12.092;2023-12-28T04:04:57;1.70;;;1.40;;
16093;SDS011;8151;47.824;12.092;2023-12-28T04:07:28;1.13;;;1.10;;
16093;SDS011;8151;47.824;12.092;2023-12-28T04:09:56;2.27;;;1.30;;
16093;SDS011;8151;47.824;12.092;2023-12-28T04:12:25;2.10;;;1.70;;
16093;SDS011;8151;47.824;12.092;2023-12-28T04:14:55;1.57;;;1.33;;
16093;SDS011;8151;47.824;12.092;2023-12-28T04:17:23;1.93;;;1.30;;
16093;SDS011;8151;47.824;12.092;2023-12-28T04:19:52;3.13;;;1.60;;
16093;SDS011;8151;47.824;12.092;2023-12-28T04:22:20;1.93;;;1.57;;
16093;SDS011;8151;47.824;12.092;2023-12-28T04:24:50;3.40;;;1.60;;
16093;SDS011;8151;47.824;12.092;2023-12-28T04:27:19;1.70;;;1.60;;
16093;SDS011;8151;47.824;12.092;2023-12-28T04:29:47;1.77;;;1.23;;
16093;SDS011;8151;47.824;12.092;2023-12-28T04:32:15;1.60;;;1.33;;
16093;SDS011;8151;47.824;12.092;2023-12-28T04:34:44;4.33;;;2.90;;
16093;SDS011;8151;47.824;12.092;2023-12-28T04:37:12;3.30;;;2.13;;
16093;SDS011;8151;47.824;12.092;2023-12-28T04:39:41;1.63;;;1.30;;
16093;SDS011;8151;47.824;12.092;2023-12-28T04:42:11;1.43;;;1.30;;
16093;SDS011;8151;47.824;12.092;2023-12-28T04:44:39;1.50;;;1.37;;
16093;SDS011;8151;47.824;12.092;2023-12-28T04:47:08;1.40;;;1.30;;
16093;SDS011;8151;47.824;12.092;2023-12-28T04:49:36;2.13;;;1.60;;
16093;SDS011;8151;47.824;12.092;2023-12-28T04:52:05;2.10;;;1.47;;
16093;SDS011;8151;47.824;12.092;2023-12-28T04:54:34;2.30;;;1.90;;
16093;SDS011;8151;47.824;12.092;2023-12-28T04:57:02;2.20;;;1.80;;
16093;SDS011;8151;47.824;12.092;2023-12-28T04:59:32;1.50;;;1.40;;
16093;SDS011;8151;47.824;12.092;2023-12-28T05:02:01;5.10;;;1.70;;
16093;SDS011;8151;47.824;12.092;2023-12-28T05:04:29;1.80;;;1.50;;
16093;SDS011;8151;47.824;12.092;2023-12-28T05:06:58;2.50;;;1.80;;
16093;SDS011;8151;47.824;12.092;2023-12-28T05:09:26;3.40;;;1.50;;
16093;SDS011;8151;47.824;12.092;2023-12-28T05:11:55;2.20;;;1.60;;
16093;SDS011;8151;47.824;12.092;2023-12-28T05:14:23;1.90;;;1.50;;
16093;SDS011;8151;47.824;12.092;2023-12-28T05:16:53;2.33;;;1.70;;
16093;SDS011;8151;47.824;12.092;2023-12-28T05:19:21;1.80;;;1.60;;
16093;SDS011;8151;47.824;12.092;2023-12-28T05:21:50;3.10;;;1.80;;
16093;SDS011;8151;47.824;12.092;2023-12-28T05:24:18;2.37;;;1.70;;
16093;SDS011;8151;47.824;12.092;2023-12-28T05:26:47;2.07;;;1.60;;
16093;SDS011;8151;47.824;12.092;2023-12-28T05:29:15;2.60;;;1.80;;
16093;SDS011;8151;47.824;12.092;2023-12-28T05:31:44;2.03;;;1.30;;
16093;SDS011;8151;47.824;12.092;2023-12-28T05:34:14;1.60;;;1.50;;
16093;SDS011;8151;47.824;12.092;2023-12-28T05:36:42;1.30;;;1.20;;
16093;SDS011;8151;47.824;12.092;2023-12-28T05:39:12;3.83;;;1.33;;
16093;SDS011;8151;47.824;12.092;2023-12-28T05:41:41;2.97;;;1.63;;
16093;SDS011;8151;47.824;12.092;2023-12-28T05:44:09;1.90;;;1.50;;
16093;SDS011;8151;47.824;12.092;2023-12-28T05:46:38;1.50;;;1.40;;
16093;SDS011;8151;47.824;12.092;2023-12-28T05:49:06;2.07;;;1.57;;
16093;SDS011;8151;47.824;12.092;2023-12-28T05:51:40;1.77;;;1.30;;
16093;SDS011;8151;47.824;12.092;2023-12-28T05:54:09;1.50;;;1.40;;
16093;SDS011;8151;47.824;12.092;2023-12-28T05:56:37;1.50;;;1.40;;
16093;SDS011;8151;47.824;12.092;2023-12-28T05:59:05;1.60;;;1.40;;
16093;SDS011;8151;47.824;12.092;2023-12-28T06:01:41;2.67;;;1.70;;
16093;SDS011;8151;47.824;12.092;2023-12-28T06:04:10;1.67;;;1.30;;
16093;SDS011;8151;47.824;12.092;2023-12-28T06:06:40;1.77;;;1.40;;
16093;SDS011;8151;47.824;12.092;2023-12-28T06:09:09;3.07;;;1.50;;
16093;SDS011;8151;47.824;12.092;2023-12-28T06:11:38;2.40;;;1.50;;
16093;SDS011;8151;47.824;12.092;2023-12-28T06:14:07;1.30;;;1.20;;
16093;SDS011;8151;47.824;12.092;2023-12-28T06:16:35;1.40;;;1.30;;
16093;SDS011;8151;47.824;12.092;2023-12-28T06:19:04;2.23;;;1.30;;
16093;SDS011;8151;47.824;12.092;2023-12-28T06:21:33;1.40;;;1.30;;
16093;SDS011;8151;47.824;12.092;2023-12-28T06:24:03;2.77;;;1.63;;
16093;SDS011;8151;47.824;12.092;2023-12-28T06:26:32;1.63;;;1.33;;
16093;SDS011;8151;47.824;12.092;2023-12-28T06:29:00;1.80;;;1.50;;
16093;SDS011;8151;47.824;12.092;2023-12-28T06:31:29;1.83;;;1.30;;
16093;SDS011;8151;47.824;12.092;2023-12-28T06:34:03;1.47;;;1.30;;
16093;SDS011;8151;47.824;12.092;2023-12-28T06:36:32;1.80;;;1.33;;
16093;SDS011;8151;47.824;12.092;2023-12-28T06:39:02;2.10;;;1.53;;
16093;SDS011;8151;47.824;12.092;2023-12-28T06:41:31;6.37;;;1.47;;
16093;SDS011;8151;47.824;12.092;2023-12-28T06:43:59;1.57;;;1.47;;
16093;SDS011;8151;47.824;12.092;2023-12-28T06:46:28;1.67;;;1.10;;
16093;SDS011;8151;47.824;12.092;2023-12-28T06:48:56;3.60;;;1.57;;
16093;SDS011;8151;47.824;12.092;2023-12-28T06:51:26;3.23;;;1.43;;
16093;SDS011;8151;47.824;12.092;2023-12-28T06:53:54;2.10;;;1.50;;
16093;SDS011;8151;47.824;12.092;2023-12-28T06:56:24;1.57;;;1.40;;
16093;SDS011;8151;47.824;12.092;2023-12-28T06:58:53;4.90;;;1.53;;
16093;SDS011;8151;47.824;12.092;2023-12-28T07:01:21;1.70;;;1.50;;
16093;SDS011;8151;47.824;12.092;2023-12-28T07:03:50;1.70;;;1.50;;
16093;SDS011;8151;47.824;12.092;2023-12-28T07:06:19;1.90;;;1.47;;
16093;SDS011;8151;47.824;12.092;2023-12-28T07:08:47;1.60;;;1.30;;
16093;SDS011;8151;47.824;12.092;2023-12-28T07:11:16;2.00;;;1.50;;
16093;SDS011;8151;47.824;12.092;2023-12-28T07:13:46;1.90;;;1.67;;
16093;SDS011;8151;47.824;12.092;2023-12-28T07:16:14;2.00;;;1.73;;
16093;SDS011;8151;47.824;12.092;2023-12-28T07:18:43;2.83;;;1.70;;
16093;SDS011;8151;47.824;12.092;2023-12-28T07:21:12;2.73;;;1.73;;
16093;SDS011;8151;47.824;12.092;2023-12-28T07:23:40;2.40;;;1.53;;
16093;SDS011;8151;47.824;12.092;2023-12-28T07:26:10;1.73;;;1.37;;
16093;SDS011;8151;47.824;12.092;2023-12-28T07:28:38;1.90;;;1.70;;
16093;SDS011;8151;47.824;12.092;2023-12-28T07:31:10;3.50;;;1.57;;
16093;SDS011;8151;47.824;12.092;2023-12-28T07:33:39;3.37;;;1.70;;
16093;SDS011;8151;47.824;12.092;2023-12-28T07:36:07;3.27;;;1.80;;
16093;SDS011;8151;47.824;12.092;2023-12-28T07:38:36;2.57;;;1.63;;
16093;SDS011;8151;47.824;12.092;2023-12-28T07:41:05;3.97;;;1.60;;
16093;SDS011;8151;47.824;12.092;2023-12-28T07:43:34;2.90;;;1.30;;
16093;SDS011;8151;47.824;12.092;2023-12-28T07:46:04;3.83;;;1.30;;
16093;SDS011;8151;47.824;12.092;2023-12-28T07:48:34;1.03;;;1.00;;
16093;SDS011;8151;47.824;12.092;2023-12-28T07:51:03;1.40;;;1.30;;
16093;SDS011;8151;47.824;12.092;2023-12-28T07:53:32;1.73;;;1.40;;
16093;SDS011;8151;47.824;12.092;2023-12-28T07:56:01;1.37;;;1.27;;
16093;SDS011;8151;47.824;12.092;2023-12-28T07:58:33;2.03;;;1.43;;
16093;SDS011;8151;47.824;12.092;2023-12-28T08:01:08;1.27;;;1.17;;
16093;SDS011;8151;47.824;12.092;2023-12-28T08:03:39;1.27;;;1.10;;
16093;SDS011;8151;47.824;12.092;2023-12-28T08:06:08;1.43;;;1.30;;
16093;SDS011;8151;47.824;12.092;2023-12-28T08:08:39;2.97;;;1.50;;
16093;SDS011;8151;47.824;12.092;2023-12-28T08:11:08;1.33;;;1.23;;
16093;SDS011;8151;47.824;12.092;2023-12-28T08:13:36;2.37;;;1.77;;
16093;SDS011;8151;47.824;12.092;2023-12-28T08:16:05;1.70;;;1.40;;
16093;SDS011;8151;47.824;12.092;2023-12-28T08:18:34;4.07;;;2.00;;
16093;SDS011;8151;47.824;12.092;2023-12-28T08:21:04;1.90;;;1.70;;
16093;SDS011;8151;47.824;12.092;2023-12-28T08:23:33;2.70;;;1.50;;
16093;SDS011;8151;47.824;12.092;2023-12-28T08:26:01;1.70;;;1.30;;
16093;SDS011;8151;47.824;12.092;2023-12-28T08:28:31;2.13;;;1.70;;
16093;SDS011;8151;47.824;12.092;2023-12-28T08:31:00;1.93;;;1.33;;
16093;SDS011;8151;47.824;12.092;2023-12-28T08:33:29;2.60;;;1.30;;
16093;SDS011;8151;47.824;12.092;2023-12-28T08:35:57;1.47;;;1.10;;
16093;SDS011;8151;47.824;12.092;2023-12-28T08:38:28;1.73;;;1.13;;
16093;SDS011;8151;47.824;12.092;2023-12-28T08:40:56;1.77;;;1.40;;
16093;SDS011;8151;47.824;12.092;2023-12-28T08:43:25;1.73;;;1.30;;
16093;SDS011;8151;47.824;12.092;2023-12-28T08:45:53;2.07;;;1.30;;
16093;SDS011;8151;47.824;12.092;2023-12-28T08:48:22;1.63;;;1.40;;
16093;SDS011;8151;47.824;12.092;2023-12-28T08:50:51;1.40;;;1.20;;
16093;SDS011;8151;47.824;12.092;2023-12-28T08:53:22;1.63;;;1.17;;
16093;SDS011;8151;47.824;12.092;2023-12-28T08:55:52;3.33;;;1.10;;
16093;SDS011;8151;47.824;12.092;2023-12-28T08:58:20;1.33;;;1.10;;
16093;SDS011;8151;47.824;12.092;2023-12-28T09:00:49;1.90;;;1.20;;
16093;SDS011;8151;47.824;12.092;2023-12-28T09:03:18;1.97;;;1.10;;
16093;SDS011;8151;47.824;12.092;2023-12-28T09:05:50;1.63;;;1.30;;
16093;SDS011;8151;47.824;12.092;2023-12-28T09:08:18;1.93;;;1.50;;
16093;SDS011;8151;47.824;12.092;2023-12-28T09:10:47;0.93;;;0.93;;
16093;SDS011;8151;47.824;12.092;2023-12-28T09:13:16;1.73;;;1.50;;
16093;SDS011;8151;47.824;12.092;2023-12-28T09:15:49;2.50;;;1.10;;
16093;SDS011;8151;47.824;12.092;2023-12-28T09:18:18;1.37;;;1.20;;
16093;SDS011;8151;47.824;12.092;2023-12-28T09:20:47;2.30;;;1.57;;
16093;SDS011;8151;47.824;12.092;2023-12-28T09:23:17;2.03;;;1.63;;
16093;SDS011;8151;47.824;12.092;2023-12-28T09:25:45;2.47;;;1.63;;
16093;SDS011;8151;47.824;12.092;2023-12-28T09:28:13;1.30;;;1.20;;
16093;SDS011;8151;47.824;12.092;2023-12-28T09:30:43;1.37;;;1.27;;
16093;SDS011;8151;47.824;12.092;2023-12-28T09:33:12;2.70;;;1.63;;
16093;SDS011;8151;47.824;12.092;2023-12-28T09:35:42;1.47;;;1.37;;
16093;SDS011;8151;47.824;12.092;2023-12-28T09:38:13;1.60;;;1.43;;
16093;SDS011;8151;47.824;12.092;2023-12-28T09:40:42;1.67;;;1.47;;
16093;SDS011;8151;47.824;12.092;2023-12-28T09:43:15;2.37;;;1.30;;
16093;SDS011;8151;47.824;12.092;2023-12-28T09:45:51;1.30;;;1.20;;
16093;SDS011;8151;47.824;12.092;2023-12-28T09:48:20;2.07;;;1.63;;
16093;SDS011;8151;47.824;12.092;2023-12-28T09:50:50;1.70;;;1.40;;
16093;SDS011;8151;47.824;12.092;2023-12-28T09:53:21;1.80;;;1.37;;
16093;SDS011;8151;47.824;12.092;2023-12-28T09:55:51;1.50;;;1.40;;
16093;SDS011;8151;47.824;12.092;2023-12-28T09:58:21;1.20;;;1.10;;
16093;SDS011;8151;47.824;12.092;2023-12-28T10:00:51;1.67;;;1.27;;
16093;SDS011;8151;47.824;12.092;2023-12-28T10:03:20;1.80;;;1.30;;
16093;SDS011;8151;47.824;12.092;2023-12-28T10:05:48;0.97;;;0.97;;
16093;SDS011;8151;47.824;12.092;2023-12-28T10:08:17;1.30;;;1.20;;
16093;SDS011;8151;47.824;12.092;2023-12-28T10:10:45;1.80;;;1.57;;
16093;SDS011;8151;47.824;12.092;2023-12-28T10:13:19;1.77;;;1.30;;
16093;SDS011;8151;47.824;12.092;2023-12-28T10:15:48;1.40;;;1.30;;
16093;SDS011;8151;47.824;12.092;2023-12-28T10:18:19;2.80;;;1.57;;
16093;SDS011;8151;47.824;12.092;2023-12-28T10:20:50;3.17;;;1.57;;
16093;SDS011;8151;47.824;12.092;2023-12-28T10:23:19;1.33;;;1.20;;
16093;SDS011;8151;47.824;12.092;2023-12-28T10:25:49;2.70;;;1.00;;
16093;SDS011;8151;47.824;12.092;2023-12-28T10:28:21;2.33;;;1.23;;
16093;SDS011;8151;47.824;12.092;2023-12-28T10:30:53;1.07;;;0.97;;
16093;SDS011;8151;47.824;12.092;2023-12-28T10:33:24;2.10;;;1.20;;
16093;SDS011;8151;47.824;12.092;2023-12-28T10:35:53;2.13;;;1.03;;
16093;SDS011;8151;47.824;12.092;2023-12-28T10:38:26;1.30;;;1.20;;
16093;SDS011;8151;47.824;12.092;2023-12-28T10:41:01;1.47;;;1.30;;
16093;SDS011;8151;47.824;12.092;2023-12-28T10:43:35;3.37;;;1.33;;
16093;SDS011;8151;47.824;12.092;2023-12-28T10:46:10;2.00;;;1.50;;
16093;SDS011;8151;47.824;12.092;2023-12-28T10:48:50;1.43;;;1.17;;
16093;SDS011;8151;47.824;12.092;2023-12-28T10:51:26;2.60;;;1.40;;
16093;SDS011;8151;47.824;12.092;2023-12-28T10:53:59;1.93;;;1.40;;
16093;SDS011;8151;47.824;12.092;2023-12-28T10:56:38;2.27;;;1.80;;
16093;SDS011;8151;47.824;12.092;2023-12-28T10:59:14;2.30;;;1.70;;
16093;SDS011;8151;47.824;12.092;2023-12-28T11:01:51;2.87;;;1.80;;
16093;SDS011;8151;47.824;12.092;2023-12-28T11:04:26;1.60;;;1.50;;
16093;SDS011;8151;47.824;12.092;2023-12-28T11:07:02;2.10;;;1.77;;
16093;SDS011;8151;47.824;12.092;2023-12-28T11:09:32;2.27;;;1.60;;
16093;SDS011;8151;47.824;12.092;2023-12-28T11:12:02;2.33;;;1.50;;
16093;SDS011;8151;47.824;12.092;2023-12-28T11:14:35;2.60;;;1.60;;
16093;SDS011;8151;47.824;12.092;2023-12-28T11:17:07;2.57;;;2.07;;
16093;SDS011;8151;47.824;12.092;2023-12-28T11:19:39;2.33;;;1.80;;
16093;SDS011;8151;47.824;12.092;2023-12-28T11:22:09;1.70;;;1.60;;
16093;SDS011;8151;47.824;12.092;2023-12-28T11:24:39;2.03;;;1.50;;
16093;SDS011;8151;47.824;12.092;2023-12-28T11:27:08;3.33;;;1.17;;
16093;SDS011;8151;47.824;12.092;2023-12-28T11:29:37;1.63;;;1.40;;
16093;SDS011;8151;47.824;12.092;2023-12-28T11:32:06;1.73;;;1.07;;
16093;SDS011;8151;47.824;12.092;2023-12-28T11:34:36;1.53;;;1.43;;
16093;SDS011;8151;47.824;12.092;2023-12-28T11:37:07;2.60;;;1.47;;
16093;SDS011;8151;47.824;12.092;2023-12-28T11:39:41;1.13;;;1.10;;
16093;SDS011;8151;47.824;12.092;2023-12-28T11:42:12;3.60;;;1.40;;
16093;SDS011;8151;47.824;12.092;2023-12-28T11:44:48;1.43;;;1.33;;
16093;SDS011;8151;47.824;12.092;2023-12-28T11:47:22;2.00;;;1.63;;
16093;SDS011;8151;47.824;12.092;2023-12-28T11:49:52;2.27;;;1.53;;
16093;SDS011;8151;47.824;12.092;2023-12-28T11:52:26;2.00;;;1.50;;
16093;SDS011;8151;47.824;12.092;2023-12-28T11:54:55;2.00;;;1.53;;
16093;SDS011;8151;47.824;12.092;2023-12-28T11:57:23;1.80;;;1.47;;
16093;SDS011;8151;47.824;12.092;2023-12-28T11:59:55;2.47;;;1.40;;
16093;SDS011;8151;47.824;12.092;2023-12-28T12:02:25;2.10;;;1.30;;
16093;SDS011;8151;47.824;12.092;2023-12-28T12:04:54;1.50;;;1.40;;
16093;SDS011;8151;47.824;12.092;2023-12-28T12:07:25;1.73;;;1.37;;
16093;SDS011;8151;47.824;12.092;2023-12-28T12:09:57;1.43;;;1.33;;
16093;SDS011;8151;47.824;12.092;2023-12-28T12:12:26;1.43;;;1.30;;
16093;SDS011;8151;47.824;12.092;2023-12-28T12:14:55;1.87;;;1.53;;
16093;SDS011;8151;47.824;12.092;2023-12-28T12:17:24;1.57;;;1.47;;
16093;SDS011;8151;47.824;12.092;2023-12-28T12:19:54;1.90;;;1.20;;
16093;SDS011;8151;47.824;12.092;2023-12-28T12:22:26;2.10;;;1.60;;
16093;SDS011;8151;47.824;12.092;2023-12-28T12:24:56;2.00;;;1.43;;
16093;SDS011;8151;47.824;12.092;2023-12-28T12:27:26;1.97;;;1.43;;
16093;SDS011;8151;47.824;12.092;2023-12-28T12:29:54;2.70;;;1.70;;
16093;SDS011;8151;47.824;12.092;2023-12-28T12:32:23;4.43;;;1.70;;
16093;SDS011;8151;47.824;12.092;2023-12-28T12:34:52;2.27;;;2.03;;
16093;SDS011;8151;47.824;12.092;2023-12-28T12:37:21;1.93;;;1.80;;
16093;SDS011;8151;47.824;12.092;2023-12-28T12:39:51;1.73;;;1.50;;
16093;SDS011;8151;47.824;12.092;2023-12-28T12:42:21;5.60;;;1.70;;
16093;SDS011;8151;47.824;12.092;2023-12-28T12:44:49;1.60;;;1.50;;
16093;SDS011;8151;47.824;12.092;2023-12-28T12:47:18;1.63;;;1.53;;
16093;SDS011;8151;47.824;12.092;2023-12-28T12:49:47;4.07;;;1.60;;
16093;SDS011;8151;47.824;12.092;2023-12-28T12:52:15;2.27;;;1.60;;
16093;SDS011;8151;47.824;12.092;2023-12-28T12:54:53;2.63;;;1.80;;
16093;SDS011;8151;47.824;12.092;2023-12-28T12:57:22;2.63;;;1.80;;
16093;SDS011;8151;47.824;12.092;2023-12-28T12:59:51;1.87;;;1.40;;
16093;SDS011;8151;47.824;12.092;2023-12-28T13:02:21;3.33;;;1.90;;
16093;SDS011;8151;47.824;12.092;2023-12-28T13:04:51;2.33;;;2.00;;
16093;SDS011;8151;47.824;12.092;2023-12-28T13:07:20;3.10;;;1.90;;
16093;SDS011;8151;47.824;12.092;2023-12-28T13:09:50;2.17;;;1.60;;
16093;SDS011;8151;47.824;12.092;2023-12-28T13:12:20;3.03;;;1.87;;
16093;SDS011;8151;47.824;12.092;2023-12-28T13:14:48;3.53;;;1.77;;
16093;SDS011;8151;47.824;12.092;2023-12-28T13:17:17;2.30;;;1.73;;
16093;SDS011;8151;47.824;12.092;2023-12-28T13:19:46;3.30;;;1.80;;
16093;SDS011;8151;47.824;12.092;2023-12-28T13:22:14;3.20;;;2.10;;
16093;SDS011;8151;47.824;12.092;2023-12-28T13:24:43;2.57;;;1.90;;
16093;SDS011;8151;47.824;12.092;2023-12-28T13:27:11;4.20;;;2.20;;
16093;SDS011;8151;47.824;12.092;2023-12-28T13:29:42;2.87;;;1.77;;
16093;SDS011;8151;47.824;12.092;2023-12-28T13:32:11;2.13;;;1.60;;
16093;SDS011;8151;47.824;12.092;2023-12-28T13:34:39;2.43;;;1.60;;
16093;SDS011;8151;47.824;12.092;2023-12-28T13:37:08;4.07;;;1.80;;
16093;SDS011;8151;47.824;12.092;2023-12-28T13:39:39;2.70;;;1.80;;
16093;SDS011;8151;47.824;12.092;2023-12-28T13:42:08;2.43;;;1.80;;
16093;SDS011;8151;47.824;12.092;2023-12-28T13:44:37;2.03;;;1.73;;
16093;SDS011;8151;47.824;12.092;2023-12-28T13:47:06;3.40;;;1.93;;
16093;SDS011;8151;47.824;12.092;2023-12-28T13:49:36;3.00;;;1.70;;
16093;SDS011;8151;47.824;12.092;2023-12-28T13:52:05;2.87;;;2.00;;
16093;SDS011;8151;47.824;12.092;2023-12-28T13:54:33;3.50;;;1.90;;
16093;SDS011;8151;47.824;12.092;2023-12-28T13:57:02;4.17;;;2.80;;
16093;SDS011;8151;47.824;12.092;2023-12-28T13:59:31;2.53;;;2.10;;
16093;SDS011;8151;47.824;12.092;2023-12-28T14:01:59;2.27;;;1.67;;
16093;SDS011;8151;47.824;12.092;2023-12-28T14:04:29;2.60;;;2.07;;
16093;SDS011;8151;47.824;12.092;2023-12-28T14:06:59;2.30;;;1.80;;
16093;SDS011;8151;47.824;12.092;2023-12-28T14:09:27;2.77;;;2.00;;
16093;SDS011;8151;47.824;12.092;2023-12-28T14:11:57;2.53;;;1.77;;
16093;SDS011;8151;47.824;12.092;2023-12-28T14:14:25;3.50;;;1.90;;
16093;SDS011;8151;47.824;12.092;2023-12-28T14:16:54;2.93;;;2.03;;
16093;SDS011;8151;47.824;12.092;2023-12-28T14:19:22;2.80;;;2.00;;
16093;SDS011;8151;47.824;12.092;2023-12-28T14:21:55;3.57;;;2.10;;
16093;SDS011;8151;47.824;12.092;2023-12-28T14:24:24;2.20;;;2.00;;
16093;SDS011;8151;47.824;12.092;2023-12-28T14:26:53;2.70;;;2.00;;
16093;SDS011;8151;47.824;12.092;2023-12-28T14:29:22;2.10;;;1.63;;
16093;SDS011;8151;47.824;12.092;2023-12-28T14:31:53;2.00;;;1.80;;
16093;SDS011;8151;47.824;12.092;2023-12-28T14:34:22;4.13;;;1.90;;
16093;SDS011;8151;47.824;12.092;2023-12-28T14:36:52;2.57;;;2.30;;
16093;SDS011;8151;47.824;12.092;2023-12-28T14:39:22;2.80;;;1.83;;
16093;SDS011;8151;47.824;12.092;2023-12-28T14:41:51;2.10;;;1.80;;
16093;SDS011;8151;47.824;12.092;2023-12-28T14:44:19;2.77;;;2.20;;
16093;SDS011;8151;47.824;12.092;2023-12-28T14:46:48;2.37;;;2.13;;
16093;SDS011;8151;47.824;12.092;2023-12-28T14:49:16;2.33;;;1.83;;
16093;SDS011;8151;47.824;12.092;2023-12-28T14:51:45;4.13;;;1.93;;
16093;SDS011;8151;47.824;12.092;2023-12-28T14:54:13;3.83;;;2.13;;
16093;SDS011;8151;47.824;12.092;2023-12-28T14:56:43;3.27;;;1.87;;
16093;SDS011;8151;47.824;12.092;2023-12-28T14:59:21;3.43;;;2.10;;
16093;SDS011;8151;47.824;12.092;2023-12-28T15:01:49;2.67;;;2.23;;